Share

Hue, Viet Nam

Phubai (VVPB) Elev 56 ft | 16.40 °N, 107.70 °E | Change Station

Current weather conditions updated 23 minutes ago

Clear
Clear
81 °F
Feels Like 87 °F
N
2
Wind Variable Wind from Variable
Sunrise 5:31 AM
Sunset 6:05 PM
Moon Waning Gibbous

Tomorrow is forecast to be nearly the same temperature as today.

Pressure 29.80 in
Visibility -9999.0 miles
Clouds
Heat Index 87 °F
Dew Point 77 °F
Humidity 89%
Rainfall 0.00 in
Snow Depth Not available.
UV Not available.
Pollen Not available.
Air Quality Not available.
Flu Activity Not available.
METAR VVPB 201530Z VRB02KT CAVOK 27/25 Q1009 NOSIG

More Conditions Fewer Conditions

Pressure 29.80 in
Visibility -9999.0 miles
Clouds
Heat Index 87 °F
Dew Point 77 °F
Humidity 89%
Rainfall 0.00 in
Snow Depth Not available.
UV Not available.
Pollen Not available.
Air Quality Not available.
Flu Activity Not available.
METAR VVPB 201530Z VRB02KT CAVOK 27/25 Q1009 NOSIG

More Conditions Fewer Conditions

10-Day Weather Forecast

Almanac

Astronomy

Apr. 20, 2014 Rise Set
Actual Time 5:31 AM ICT 6:05 PM ICT
Civil Twilight 5:09 AM ICT 6:27 PM ICT
Nautical Twilight 4:43 AM ICT 6:53 PM ICT
Astronomical Twilight 4:17 AM ICT 7:19 PM ICT
Moon 10:53 PM ICT 9:36 AM ICT
Length of Visible Light 13h 18m
Length of Day
12h 34m
Tomorrow will be 0m 51s longer.
Waning Gibbous, 69% of the Moon is Illuminated
Today
Waning Gibbous
Apr 22
Last Quarter
Apr 29
New
May 6
First Quarter
May 14
Full

Today's Extremes

Country Highs Country Lows

Community

  • Easter Sunrise
    Easter Sunrise
  • Easter Eve - The Promise - Lake Palestine, TX
    Easter Eve - The Promise - Lake Palestine, TX
  • Happy Easter
    Happy Easter
  • EARLY FOGGY MORNING
    EARLY FOGGY MORNING
  • Easter Greetings
    Easter Greetings

WunderPhotos

Upload Photos

1,703,259 photos uploaded!

WunderBlogs® & News

Nearby

Snow Depth

Not available.

Coastal Water Temperatures

Place Temperature
No Stations Reporting

Earthquake Activity

City Distance Mag. Time & Date
No recent earthquake activity has been reported nearby.
Minimum magnitude displayed is 2.5.

Nearby Weather Stations

There are no personal weather stations in this area.

What do you think?

We're not finished. Please let us know what you like, what you don't like, and what you are still missing.